Time;durP1;ratioP1;P1;durP2;ratioP2;P2;SDS_P1;SDS_P2;PMS_P1;PMS_P2;Temp;Humidity;BMP_temperature;BMP_pressure;BME280_temperature;BME280_humidity;BME280_pressure;Samples;Min_cycle;Max_cycle;Signal;HPM_P1;HPM_P2
2023/07/22 00:01:14;;;;;;;3.80;1.90;;;;;;;17.76;89.67;100009.66;5086272;28;20024;-59
2023/07/22 00:03:39;;;;;;;5.32;2.00;;;;;;;17.73;89.88;99996.34;5086990;28;20027;-60
2023/07/22 00:06:06;;;;;;;4.15;1.70;;;;;;;17.71;90.53;100007.22;5085748;28;20055;-60
2023/07/22 00:08:32;;;;;;;3.63;2.10;;;;;;;17.66;90.59;100009.31;5084479;28;20028;-60
2023/07/22 00:10:58;;;;;;;4.20;1.85;;;;;;;17.67;90.50;100005.69;5086332;28;20024;-60
2023/07/22 00:13:26;;;;;;;3.92;1.90;;;;;;;17.70;90.56;99999.25;5079622;28;20028;-60
2023/07/22 00:15:52;;;;;;;3.83;1.90;;;;;;;17.68;90.58;100002.03;5066611;28;20036;-60
2023/07/22 00:18:18;;;;;;;3.15;1.98;;;;;;;17.65;90.64;100012.09;5067285;28;20074;-60
2023/07/22 00:20:43;;;;;;;3.33;1.75;;;;;;;17.64;90.63;100013.09;5087675;28;20024;-60
2023/07/22 00:23:10;;;;;;;3.47;2.05;;;;;;;17.60;90.63;100014.22;5087564;28;20039;-60
2023/07/22 00:25:35;;;;;;;5.20;2.35;;;;;;;17.60;90.65;100020.47;5085809;28;20036;-60
2023/07/22 00:28:01;;;;;;;4.25;2.30;;;;;;;17.58;90.80;100022.38;5086844;28;20031;-60
2023/07/22 00:30:28;;;;;;;3.42;1.90;;;;;;;17.55;90.91;100025.25;5084771;28;20107;-60
2023/07/22 00:32:54;;;;;;;6.85;2.22;;;;;;;17.53;90.78;100019.09;5083305;28;20039;-60
2023/07/22 00:35:19;;;;;;;3.72;1.80;;;;;;;17.56;90.81;100024.28;5088046;28;20028;-61
2023/07/22 00:37:44;;;;;;;3.67;2.00;;;;;;;17.55;91.17;100016.31;5087053;28;20077;-59
2023/07/22 00:40:13;;;;;;;3.80;2.00;;;;;;;17.52;91.22;100017.38;5088048;28;20032;-60
2023/07/22 00:42:39;;;;;;;3.38;2.00;;;;;;;17.53;91.38;100019.09;5087242;28;20024;-60
2023/07/22 00:45:06;;;;;;;6.32;2.30;;;;;;;17.48;91.74;100005.06;5076542;28;20080;-60
2023/07/22 00:47:33;;;;;;;5.57;2.53;;;;;;;17.50;92.21;100013.91;5087742;28;20515;-60
2023/07/22 00:50:01;;;;;;;3.70;2.13;;;;;;;17.48;92.40;100002.38;5078163;28;20492;-60
2023/07/22 00:52:27;;;;;;;4.05;2.13;;;;;;;17.50;92.34;100007.66;5071381;28;20028;-60
2023/07/22 00:54:52;;;;;;;3.90;2.22;;;;;;;17.51;92.28;99999.50;5083504;28;20036;-60
2023/07/22 00:57:19;;;;;;;5.43;2.03;;;;;;;17.49;92.62;99996.06;5087048;28;20050;-60
2023/07/22 00:59:45;;;;;;;3.00;2.00;;;;;;;17.50;92.96;99992.41;5087478;28;20047;-60
2023/07/22 01:02:10;;;;;;;6.47;2.10;;;;;;;17.49;92.59;99987.13;5082932;28;20040;-60
2023/07/22 01:04:36;;;;;;;5.20;2.30;;;;;;;17.49;92.87;99995.19;5082489;28;20056;-60
2023/07/22 01:07:07;;;;;;;3.95;2.33;;;;;;;17.47;93.13;99987.22;5088556;28;20024;-60
2023/07/22 01:09:36;;;;;;;4.38;2.45;;;;;;;17.46;93.20;99982.78;5088879;28;20068;-60
2023/07/22 01:12:02;;;;;;;4.45;2.08;;;;;;;17.46;93.26;99984.63;5087272;28;20096;-60
2023/07/22 01:14:27;;;;;;;5.95;2.67;;;;;;;17.45;93.28;99983.75;5088296;28;20414;-60
2023/07/22 01:16:53;;;;;;;3.72;2.33;;;;;;;17.44;93.11;99986.50;5087624;28;20447;-60
2023/07/22 01:19:19;;;;;;;4.72;2.13;;;;;;;17.37;93.45;99986.00;5088115;28;20526;-60
2023/07/22 01:21:46;;;;;;;5.30;2.35;;;;;;;17.39;93.05;99984.09;5087928;28;20136;-60
2023/07/22 01:24:12;;;;;;;4.28;1.92;;;;;;;17.39;93.23;99984.09;5087005;28;20362;-60
2023/07/22 01:26:38;;;;;;;2.83;1.73;;;;;;;17.41;93.28;99984.88;5091904;28;20106;-60
2023/07/22 01:29:05;;;;;;;3.88;2.15;;;;;;;17.38;93.05;99982.34;5091254;28;20023;-60
2023/07/22 01:31:33;;;;;;;4.93;2.15;;;;;;;17.32;93.17;99977.34;5093053;28;20024;-60
2023/07/22 01:33:59;;;;;;;4.07;2.00;;;;;;;17.33;93.47;99989.81;5093370;28;20051;-60
2023/07/22 01:36:25;;;;;;;3.17;2.03;;;;;;;17.30;93.83;99979.25;5093195;28;20086;-60
2023/07/22 01:38:50;;;;;;;4.28;2.03;;;;;;;17.32;93.80;99982.72;5092078;28;20020;-60
2023/07/22 01:41:16;;;;;;;5.30;2.30;;;;;;;17.34;93.66;99978.13;5093750;28;20675;-60
2023/07/22 01:43:41;;;;;;;3.92;2.00;;;;;;;17.28;93.80;99981.16;5093834;28;20032;-60
2023/07/22 01:46:07;;;;;;;5.38;2.20;;;;;;;17.30;93.62;99981.94;5093312;28;20066;-60
2023/07/22 01:48:33;;;;;;;6.18;2.40;;;;;;;17.32;93.58;99969.28;5094071;28;20093;-60
2023/07/22 01:50:58;;;;;;;3.40;2.00;;;;;;;17.33;93.51;99979.06;5093867;28;20028;-60
2023/07/22 01:53:23;;;;;;;3.70;1.90;;;;;;;17.31;93.29;99969.38;5092610;28;20637;-60
2023/07/22 01:55:49;;;;;;;3.70;2.15;;;;;;;17.27;93.85;99974.06;5094241;28;20031;-60
2023/07/22 01:58:14;;;;;;;4.18;2.10;;;;;;;17.26;93.71;99972.34;5094249;28;20421;-60
2023/07/22 02:00:40;;;;;;;4.95;2.15;;;;;;;17.26;93.64;99966.09;5093582;28;20031;-60
2023/07/22 02:03:05;;;;;;;3.72;1.95;;;;;;;17.27;93.81;99963.31;5094294;28;20535;-60
2023/07/22 02:05:31;;;;;;;4.47;2.00;;;;;;;17.29;93.57;99964.09;5092176;28;20411;-60
2023/07/22 02:07:57;;;;;;;2.88;1.88;;;;;;;17.27;93.78;99960.63;5087460;28;20043;-60
2023/07/22 02:10:22;;;;;;;4.05;1.90;;;;;;;17.29;93.75;99961.41;5093703;28;20107;-59
2023/07/22 02:12:47;;;;;;;6.35;2.28;;;;;;;17.29;93.43;99966.78;5093409;28;20114;-60
2023/07/22 02:15:13;;;;;;;3.15;1.95;;;;;;;17.27;93.44;99954.38;5093713;28;20058;-60
2023/07/22 02:17:39;;;;;;;5.10;2.10;;;;;;;17.24;93.16;99962.63;5092407;28;20052;-60
2023/07/22 02:20:06;;;;;;;4.47;2.15;;;;;;;17.24;92.93;99968.88;5094292;28;20039;-60
2023/07/22 02:22:31;;;;;;;3.30;1.58;;;;;;;17.23;93.38;99972.53;5090220;28;20040;-60
2023/07/22 02:24:56;;;;;;;2.88;1.92;;;;;;;17.20;93.24;99970.00;5079410;28;20393;-60
2023/07/22 02:27:22;;;;;;;4.60;2.13;;;;;;;17.17;92.85;99972.03;5088790;28;20765;-60
2023/07/22 02:29:47;;;;;;;3.95;2.03;;;;;;;17.16;92.95;99968.50;5073462;28;20111;-60
2023/07/22 02:32:13;;;;;;;3.97;2.28;;;;;;;17.13;93.25;99966.00;5073434;28;20471;-60
2023/07/22 02:34:38;;;;;;;2.80;1.95;;;;;;;17.08;93.59;99973.47;5082193;28;20038;-60
2023/07/22 02:37:04;;;;;;;3.92;2.10;;;;;;;17.02;93.37;99963.06;5091003;28;20106;-60
2023/07/22 02:39:29;;;;;;;3.97;1.90;;;;;;;17.05;93.91;99968.25;5089338;28;20031;-60
2023/07/22 02:41:55;;;;;;;5.57;2.42;;;;;;;17.04;94.05;99966.53;5088950;28;20028;-60
2023/07/22 02:44:20;;;;;;;4.38;2.70;;;;;;;16.99;93.99;99966.81;5088639;28;20175;-60
2023/07/22 02:46:46;;;;;;;3.60;2.08;;;;;;;16.94;94.27;99960.84;5088890;28;20028;-60
2023/07/22 02:49:11;;;;;;;3.80;1.98;;;;;;;16.88;94.60;99963.03;5088110;28;20076;-60
2023/07/22 02:51:37;;;;;;;3.88;2.22;;;;;;;16.80;94.54;99968.00;5087884;28;20047;-59
2023/07/22 02:54:03;;;;;;;5.13;2.10;;;;;;;16.73;94.98;99964.78;5086995;28;20020;-59
2023/07/22 02:56:29;;;;;;;3.83;1.80;;;;;;;16.70;95.52;99967.66;5080169;28;20055;-60
2023/07/22 02:58:54;;;;;;;5.20;2.40;;;;;;;16.68;95.54;99964.19;5081749;28;20020;-60
2023/07/22 03:01:19;;;;;;;3.60;2.10;;;;;;;16.64;95.24;99969.81;5088160;28;20115;-60
2023/07/22 03:03:45;;;;;;;2.70;1.77;;;;;;;16.59;95.54;99977.28;5088840;28;20027;-60
2023/07/22 03:06:10;;;;;;;5.20;2.20;;;;;;;16.53;95.99;99969.56;5088895;28;20480;-59
2023/07/22 03:08:36;;;;;;;4.60;2.35;;;;;;;16.51;96.42;99982.22;5089475;28;20531;-59
2023/07/22 03:11:03;;;;;;;5.25;2.13;;;;;;;16.43;96.05;99979.06;5090103;28;20021;-59
2023/07/22 03:13:29;;;;;;;3.92;2.30;;;;;;;16.35;96.34;99981.31;5089802;28;20123;-59
2023/07/22 03:15:55;;;;;;;4.68;2.05;;;;;;;16.28;97.42;99974.56;5090716;28;20420;-60
2023/07/22 03:18:20;;;;;;;4.57;2.58;;;;;;;16.21;97.25;99983.94;5084626;28;20039;-60
2023/07/22 03:20:46;;;;;;;4.05;2.13;;;;;;;16.13;97.55;99980.81;5089648;28;20433;-60
2023/07/22 03:23:11;;;;;;;4.90;2.20;;;;;;;16.06;97.83;99982.09;5090044;28;20069;-59
2023/07/22 03:25:37;;;;;;;7.38;2.67;;;;;;;16.01;98.55;99998.47;5087191;28;20111;-60
2023/07/22 03:28:04;;;;;;;3.80;2.05;;;;;;;15.96;98.59;99983.56;5088257;28;20024;-60
2023/07/22 03:30:30;;;;;;;3.88;2.10;;;;;;;15.94;98.87;99986.31;5088847;28;20019;-60
2023/07/22 03:32:56;;;;;;;3.35;1.98;;;;;;;15.95;99.44;99988.03;5088709;28;20035;-60
2023/07/22 03:35:21;;;;;;;3.83;2.38;;;;;;;15.98;99.81;99982.50;5082407;28;20039;-60
2023/07/22 03:37:47;;;;;;;7.60;2.30;;;;;;;16.03;100.00;99984.97;5088804;28;20114;-60
2023/07/22 03:40:22;;;;;;;7.25;2.25;;;;;;;16.06;100.00;99979.41;5087541;28;20043;-60
2023/07/22 03:42:51;;;;;;;3.65;2.03;;;;;;;16.12;100.00;99990.69;5088921;28;20348;-60
2023/07/22 03:45:17;;;;;;;6.03;2.33;;;;;;;16.14;100.00;99980.72;5088075;28;20050;-60
2023/07/22 03:47:51;;;;;;;5.47;2.65;;;;;;;16.19;100.00;99981.34;5088167;28;20053;-60
2023/07/22 03:50:16;;;;;;;7.95;2.63;;;;;;;16.24;100.00;99983.75;5088605;28;20035;-60
2023/07/22 03:52:42;;;;;;;4.38;2.00;;;;;;;16.28;100.00;99980.81;5087396;28;20044;-60
2023/07/22 03:55:08;;;;;;;4.68;2.47;;;;;;;16.34;100.00;99990.34;5088477;28;20047;-60
2023/07/22 03:57:34;;;;;;;7.05;3.08;;;;;;;16.37;100.00;99980.31;5087380;28;20051;-60
2023/07/22 04:00:00;;;;;;;5.35;2.72;;;;;;;16.47;99.62;99986.03;5086243;28;20372;-60
2023/07/22 04:02:25;;;;;;;4.72;2.10;;;;;;;16.51;99.20;99983.09;5087385;28;20024;-60
2023/07/22 04:04:53;;;;;;;4.53;2.40;;;;;;;16.51;98.64;99976.84;5087921;28;20764;-60
2023/07/22 04:07:18;;;;;;;5.93;2.65;;;;;;;16.58;98.07;99980.91;5087412;28;20032;-60
2023/07/22 04:09:45;;;;;;;3.55;2.13;;;;;;;16.61;98.14;99978.06;5088220;28;20046;-60
2023/07/22 04:12:10;;;;;;;4.22;2.58;;;;;;;16.60;98.18;99977.22;5087655;28;20034;-60
2023/07/22 04:14:35;;;;;;;7.00;2.65;;;;;;;16.60;98.22;99981.69;5087892;28;20027;-60
2023/07/22 04:17:01;;;;;;;3.42;1.88;;;;;;;16.60;98.12;99977.22;5087569;28;20111;-60
2023/07/22 04:19:26;;;;;;;6.88;2.40;;;;;;;16.62;98.04;99977.97;5087052;28;20089;-60
2023/07/22 04:21:52;;;;;;;3.17;2.03;;;;;;;16.65;98.38;99985.00;5087317;28;20016;-60
2023/07/22 04:24:18;;;;;;;6.43;2.45;;;;;;;16.68;98.64;99984.81;5082739;28;20031;-60
2023/07/22 04:26:43;;;;;;;6.80;2.38;;;;;;;16.71;98.58;99984.63;5086094;28;20027;-60
2023/07/22 04:29:11;;;;;;;6.88;2.35;;;;;;;16.73;98.57;99980.91;5085756;28;20039;-60
2023/07/22 04:31:37;;;;;;;8.50;2.40;;;;;;;16.71;99.07;99968.50;5085627;28;20127;-60
2023/07/22 04:34:02;;;;;;;5.20;2.35;;;;;;;16.83;98.55;99981.22;5085144;28;20131;-60
2023/07/22 04:36:28;;;;;;;4.68;2.28;;;;;;;16.84;98.01;99974.91;5086167;28;20035;-60
2023/07/22 04:38:53;;;;;;;6.47;2.35;;;;;;;16.86;98.31;99984.59;5087199;28;20127;-60
2023/07/22 04:41:19;;;;;;;6.28;1.98;;;;;;;16.88;97.90;99984.53;5086352;28;20028;-60
2023/07/22 04:43:44;;;;;;;4.60;2.35;;;;;;;16.94;97.48;99976.97;5087378;28;20434;-60
2023/07/22 04:46:10;;;;;;;6.47;2.65;;;;;;;17.00;97.24;99970.38;5085860;28;20818;-60
2023/07/22 04:48:36;;;;;;;4.32;2.03;;;;;;;17.05;96.09;99982.56;5087380;28;20020;-60
2023/07/22 04:51:02;;;;;;;5.88;2.38;;;;;;;17.09;95.53;99988.63;5069047;28;20746;-60
2023/07/22 04:53:27;;;;;;;4.72;2.50;;;;;;;17.16;95.35;99987.31;5087097;28;20081;-60
2023/07/22 04:55:54;;;;;;;5.97;2.72;;;;;;;17.23;94.92;99990.50;5087490;28;20040;-60
2023/07/22 04:58:20;;;;;;;4.22;2.28;;;;;;;17.26;93.78;99993.00;5074193;28;20550;-60
2023/07/22 05:00:46;;;;;;;5.07;2.00;;;;;;;17.30;92.90;99995.38;5086454;28;20031;-60
2023/07/22 05:03:11;;;;;;;3.22;2.00;;;;;;;17.36;92.90;99999.53;5088160;28;20054;-60
2023/07/22 05:05:37;;;;;;;3.85;2.10;;;;;;;17.42;93.22;99997.34;5087952;28;20131;-60
2023/07/22 05:08:02;;;;;;;5.63;2.33;;;;;;;17.52;92.84;100003.06;5087666;28;20112;-60
2023/07/22 05:10:28;;;;;;;4.10;2.03;;;;;;;17.56;92.21;100001.94;5078953;28;20028;-60
2023/07/22 05:12:54;;;;;;;3.85;1.92;;;;;;;17.51;91.55;100002.19;5067467;28;20036;-60
2023/07/22 05:15:20;;;;;;;3.65;2.22;;;;;;;17.64;92.06;100011.28;5068860;28;20046;-61
2023/07/22 05:17:46;;;;;;;4.82;2.40;;;;;;;17.78;91.18;100008.56;5086940;28;20027;-60
2023/07/22 05:20:12;;;;;;;3.90;1.90;;;;;;;17.93;90.76;100007.63;5086826;28;20400;-60
2023/07/22 05:22:39;;;;;;;4.53;2.22;;;;;;;18.09;90.11;100013.75;5086343;28;20065;-60
2023/07/22 05:25:06;;;;;;;4.38;2.35;;;;;;;18.35;89.31;100021.03;5084668;28;20035;-60
2023/07/22 05:27:32;;;;;;;4.35;1.92;;;;;;;18.49;88.17;100027.41;5086022;28;20468;-60
2023/07/22 05:29:57;;;;;;;7.35;2.35;;;;;;;18.67;87.72;100027.06;5085317;28;20089;-60
2023/07/22 05:32:23;;;;;;;5.20;2.50;;;;;;;18.81;86.66;100023.50;5086339;28;20496;-61
2023/07/22 05:34:48;;;;;;;6.32;2.40;;;;;;;18.77;87.03;100027.34;5085664;28;20040;-60
2023/07/22 05:37:13;;;;;;;5.93;2.15;;;;;;;18.77;86.58;100032.72;5086156;28;20038;-60
2023/07/22 05:39:39;;;;;;;4.85;2.33;;;;;;;18.75;86.22;100034.66;5086293;28;20113;-61
2023/07/22 05:42:05;;;;;;;5.15;2.65;;;;;;;18.81;87.14;100036.97;5071706;28;20442;-61
2023/07/22 05:44:30;;;;;;;7.43;2.70;;;;;;;18.77;86.98;100043.50;5084283;28;20043;-60
2023/07/22 05:46:55;;;;;;;4.45;2.42;;;;;;;18.79;87.30;100041.59;5086579;28;20131;-60
2023/07/22 05:49:21;;;;;;;4.88;2.70;;;;;;;18.80;86.86;100044.16;5087520;28;20063;-60
2023/07/22 05:51:46;;;;;;;5.90;2.50;;;;;;;18.84;86.97;100050.22;5087390;28;20023;-60
2023/07/22 05:54:12;;;;;;;6.85;2.88;;;;;;;18.84;86.79;100045.72;5086681;28;20492;-60
2023/07/22 05:56:37;;;;;;;6.75;2.78;;;;;;;18.81;86.42;100050.44;5069184;28;20038;-60
2023/07/22 05:59:02;;;;;;;6.45;2.67;;;;;;;18.86;86.25;100059.09;5087599;28;20244;-60
2023/07/22 06:01:28;;;;;;;3.90;2.10;;;;;;;18.92;87.16;100058.66;5086546;28;20077;-60
2023/07/22 06:03:53;;;;;;;6.40;2.60;;;;;;;18.92;87.24;100050.59;5087309;28;20032;-59
2023/07/22 06:06:19;;;;;;;5.18;2.53;;;;;;;18.98;86.76;100055.56;5087455;28;20040;-60
2023/07/22 06:08:44;;;;;;;5.10;2.38;;;;;;;19.03;86.10;100058.81;5086761;28;20094;-59
2023/07/22 06:11:10;;;;;;;4.90;2.42;;;;;;;19.09;85.92;100061.13;5087584;28;20445;-60
2023/07/22 06:13:35;;;;;;;5.10;2.97;;;;;;;19.09;84.64;100061.97;5090381;28;20032;-60
2023/07/22 06:16:00;;;;;;;5.90;2.50;;;;;;;19.16;85.08;100062.47;5081269;28;20027;-60
2023/07/22 06:18:26;;;;;;;5.68;2.30;;;;;;;19.26;84.62;100071.63;5085696;28;20043;-60
2023/07/22 06:20:51;;;;;;;5.97;3.13;;;;;;;19.41;85.03;100063.41;5088912;28;20475;-60
2023/07/22 06:23:17;;;;;;;8.52;2.92;;;;;;;19.57;85.03;100061.41;5087145;28;20038;-60
2023/07/22 06:25:43;;;;;;;4.05;2.03;;;;;;;19.72;84.37;100062.16;5087465;28;20384;-60
2023/07/22 06:28:08;;;;;;;4.70;2.22;;;;;;;19.90;83.03;100069.00;5086737;28;20039;-60
2023/07/22 06:30:33;;;;;;;4.30;2.13;;;;;;;20.06;81.87;100077.78;5084954;28;20032;-61
2023/07/22 06:32:59;;;;;;;4.03;1.92;;;;;;;20.15;81.75;100066.34;5083164;28;20024;-60
2023/07/22 06:35:24;;;;;;;4.07;2.08;;;;;;;20.35;80.96;100064.91;5076946;28;20115;-60
2023/07/22 06:37:50;;;;;;;4.50;2.40;;;;;;;20.45;80.70;100055.16;5078358;28;20081;-60
2023/07/22 06:40:15;;;;;;;7.70;2.08;;;;;;;20.37;78.43;100066.53;5085130;28;20028;-60
2023/07/22 06:42:40;;;;;;;4.18;2.67;;;;;;;20.54;78.55;100062.63;5081784;28;20069;-59
2023/07/22 06:45:07;;;;;;;4.60;2.03;;;;;;;20.70;77.92;100072.22;5087384;28;20027;-60
2023/07/22 06:47:32;;;;;;;5.18;1.92;;;;;;;20.89;76.90;100064.47;5083061;28;20028;-60
2023/07/22 06:49:57;;;;;;;5.35;1.92;;;;;;;20.94;75.76;100062.28;5088585;28;20544;-60
2023/07/22 06:52:23;;;;;;;5.22;1.98;;;;;;;21.05;76.40;100066.94;5079438;28;20036;-60
2023/07/22 06:54:49;;;;;;;5.57;2.15;;;;;;;21.14;75.15;100058.13;5083952;28;20024;-60
2023/07/22 06:57:14;;;;;;;5.82;2.30;;;;;;;21.43;74.06;100064.88;5084465;28;20031;-60
2023/07/22 06:59:40;;;;;;;5.47;1.98;;;;;;;21.66;73.43;100063.97;5079965;28;20024;-59
2023/07/22 07:02:05;;;;;;;3.55;2.00;;;;;;;21.81;73.65;100064.69;5086529;28;20032;-60
2023/07/22 07:04:31;;;;;;;5.97;1.70;;;;;;;21.77;72.68;100057.78;5081697;28;20111;-59
2023/07/22 07:06:56;;;;;;;5.13;2.03;;;;;;;21.72;72.14;100055.41;5079166;28;20024;-60
2023/07/22 07:09:22;;;;;;;5.00;2.15;;;;;;;21.82;70.56;100056.44;5079182;28;20028;-59
2023/07/22 07:11:47;;;;;;;4.22;1.80;;;;;;;21.87;70.95;100054.25;5068773;28;20098;-60
2023/07/22 07:14:13;;;;;;;4.35;1.70;;;;;;;21.85;70.93;100055.34;5083680;28;20026;-60
2023/07/22 07:16:38;;;;;;;4.13;1.67;;;;;;;21.76;71.24;100051.50;5076426;28;20024;-60
2023/07/22 07:19:04;;;;;;;3.35;1.60;;;;;;;21.66;71.94;100042.31;5077687;28;20028;-60
2023/07/22 07:21:29;;;;;;;5.07;1.95;;;;;;;21.64;72.05;100052.44;5082572;28;20414;-60
2023/07/22 07:23:55;;;;;;;5.30;2.47;;;;;;;21.69;71.99;100055.66;5080067;28;20031;-60
2023/07/22 07:26:21;;;;;;;4.40;2.05;;;;;;;21.79;71.53;100050.41;5073863;28;20478;-61
2023/07/22 07:28:48;;;;;;;5.32;2.10;;;;;;;22.01;72.60;100058.56;5078090;28;20115;-60
2023/07/22 07:31:14;;;;;;;3.40;1.73;;;;;;;22.40;69.98;100047.28;5074842;28;20043;-60
2023/07/22 07:33:39;;;;;;;3.80;1.90;;;;;;;22.74;68.22;100051.72;5075340;28;20353;-61
2023/07/22 07:36:05;;;;;;;4.80;1.67;;;;;;;23.09;66.21;100055.09;5079927;28;20028;-61
2023/07/22 07:38:31;;;;;;;4.32;1.63;;;;;;;23.46;65.52;100054.75;5079549;28;20503;-60
2023/07/22 07:40:59;;;;;;;4.70;1.77;;;;;;;23.87;63.99;100065.66;5077124;28;20028;-60
2023/07/22 07:43:25;;;;;;;4.55;1.48;;;;;;;24.40;63.19;100059.09;5078868;28;20088;-60
2023/07/22 07:46:18;;;;;;;3.45;1.48;;;;;;;24.94;60.08;100054.22;5071511;28;20036;-61
2023/07/22 07:48:45;;;;;;;3.33;1.70;;;;;;;25.22;58.96;100053.38;5083681;28;20185;-61
2023/07/22 07:51:13;;;;;;;4.03;1.50;;;;;;;25.76;57.60;100051.00;5086848;28;20028;-61
2023/07/22 07:53:38;;;;;;;4.68;1.67;;;;;;;25.81;56.27;100056.84;5086113;28;20034;-61
2023/07/22 07:56:04;;;;;;;5.03;1.35;;;;;;;25.88;55.91;100049.81;5088160;28;20688;-61
2023/07/22 07:58:29;;;;;;;4.10;1.58;;;;;;;25.78;55.25;100061.75;5086148;28;20027;-61
2023/07/22 08:00:55;;;;;;;2.72;1.42;;;;;;;25.84;55.20;100061.16;5077981;28;20024;-61
2023/07/22 08:03:20;;;;;;;2.95;1.48;;;;;;;25.93;54.99;100061.13;5069663;28;20083;-61
2023/07/22 08:05:46;;;;;;;3.30;1.17;;;;;;;26.04;55.16;100051.13;5070491;28;20446;-61
2023/07/22 08:08:11;;;;;;;3.03;1.38;;;;;;;25.88;55.74;100055.25;5084689;28;20550;-61
2023/07/22 08:10:37;;;;;;;3.70;1.65;;;;;;;25.68;55.30;100056.28;5085973;28;20016;-61
2023/07/22 08:13:02;;;;;;;2.83;1.05;;;;;;;25.37;57.06;100051.97;5070486;28;20028;-61
2023/07/22 08:15:27;;;;;;;2.72;1.10;;;;;;;25.57;56.42;100061.88;5069643;28;20031;-61
2023/07/22 08:17:53;;;;;;;5.15;1.50;;;;;;;25.83;55.91;100052.09;5083785;28;20031;-61
2023/07/22 08:20:19;;;;;;;3.58;1.63;;;;;;;25.90;55.81;100055.97;5084361;28;20109;-61
2023/07/22 08:22:44;;;;;;;3.63;1.40;;;;;;;26.13;54.58;100053.81;5084740;28;20093;-61
2023/07/22 08:25:09;;;;;;;3.63;1.42;;;;;;;26.34;55.34;100051.75;5078748;28;20559;-62
2023/07/22 08:27:35;;;;;;;2.65;1.20;;;;;;;26.61;55.59;100056.38;5085357;28;20032;-62
2023/07/22 08:30:00;;;;;;;4.68;1.90;;;;;;;27.32;53.77;100052.84;5084708;28;20095;-62
2023/07/22 08:32:26;;;;;;;2.95;1.27;;;;;;;27.88;51.70;100058.84;5086089;28;20557;-62
2023/07/22 08:34:51;;;;;;;2.90;1.20;;;;;;;28.44;47.52;100056.53;5081940;28;20020;-61
2023/07/22 08:37:16;;;;;;;3.03;1.13;;;;;;;28.72;46.28;100057.22;5076477;28;20106;-62
2023/07/22 08:39:42;;;;;;;3.38;1.40;;;;;;;28.86;45.21;100051.13;5085030;28;20027;-62
2023/07/22 08:42:08;;;;;;;2.95;1.42;;;;;;;28.88;46.67;100049.06;5086412;28;20036;-62
2023/07/22 08:44:38;;;;;;;2.95;1.50;;;;;;;29.01;47.05;100051.34;5079140;28;20044;-62
2023/07/22 08:47:08;;;;;;;3.40;1.80;;;;;;;29.13;46.20;100044.56;5084322;28;20036;-62
2023/07/22 08:49:34;;;;;;;3.05;1.40;;;;;;;29.25;45.58;100048.72;5084223;28;20123;-62
2023/07/22 08:52:00;;;;;;;3.05;1.30;;;;;;;29.30;47.04;100040.84;5085127;28;20142;-62
2023/07/22 08:54:27;;;;;;;4.13;1.35;;;;;;;29.55;46.75;100048.09;5081985;28;20112;-62
2023/07/22 08:56:53;;;;;;;2.70;1.42;;;;;;;29.91;46.10;100046.75;5084254;28;20031;-62
2023/07/22 08:59:19;;;;;;;3.92;0.98;;;;;;;30.06;45.30;100052.41;5085294;28;20106;-62
2023/07/22 09:01:47;;;;;;;7.05;1.50;;;;;;;30.31;44.70;100048.63;5085076;28;20088;-62
2023/07/22 09:04:13;;;;;;;3.05;1.35;;;;;;;30.53;42.61;100043.25;5069078;28;20032;-61
2023/07/22 09:06:41;;;;;;;2.17;1.20;;;;;;;30.64;43.30;100051.09;5071744;28;20052;-62
2023/07/22 09:09:08;;;;;;;3.38;1.30;;;;;;;30.21;41.89;100048.78;5065776;28;20087;-62
2023/07/22 09:11:34;;;;;;;6.35;1.30;;;;;;;30.19;41.85;100037.13;5048874;28;20016;-62
2023/07/22 09:14:02;;;;;;;3.83;1.55;;;;;;;30.37;44.46;100032.31;5069335;28;20028;-62
2023/07/22 09:16:29;;;;;;;2.92;1.30;;;;;;;30.79;42.66;100032.88;5078852;28;20368;-62
2023/07/22 09:18:57;;;;;;;2.72;1.20;;;;;;;30.98;43.23;100030.72;5072967;28;20021;-63
2023/07/22 09:21:23;;;;;;;3.45;1.52;;;;;;;31.05;42.48;100031.72;5084429;28;20422;-63
2023/07/22 09:23:48;;;;;;;2.88;1.40;;;;;;;31.08;41.19;100031.34;5070665;28;20020;-64
2023/07/22 09:26:15;;;;;;;4.95;1.40;;;;;;;31.18;41.26;100032.00;5075322;28;20105;-64
2023/07/22 09:28:52;;;;;;;3.65;1.40;;;;;;;30.61;42.76;100040.47;5065783;28;20400;-63
2023/07/22 09:31:17;;;;;;;2.75;1.10;;;;;;;30.91;42.68;100027.00;5080224;28;20073;-64
2023/07/22 09:33:43;;;;;;;2.17;1.13;;;;;;;31.23;39.86;100030.41;5070957;28;20024;-64
2023/07/22 09:36:11;;;;;;;3.22;1.45;;;;;;;31.16;40.48;100034.06;5075294;28;20038;-64
2023/07/22 09:38:36;;;;;;;3.03;1.30;;;;;;;30.99;40.60;100029.72;5077209;28;20028;-63
2023/07/22 09:41:01;;;;;;;3.88;1.27;;;;;;;31.05;39.53;100026.22;5068813;28;20028;-63
2023/07/22 09:43:27;;;;;;;3.72;1.40;;;;;;;31.36;40.75;100024.34;5078042;28;20040;-64
2023/07/22 09:45:53;;;;;;;2.75;1.05;;;;;;;31.49;40.00;100021.84;5068651;28;20123;-64
2023/07/22 09:48:21;;;;;;;2.80;1.02;;;;;;;31.69;38.66;100017.56;5072801;28;20978;-64
2023/07/22 09:50:55;;;;;;;3.22;1.23;;;;;;;32.14;39.19;100012.03;5061408;28;20020;-64
2023/07/22 09:53:21;;;;;;;6.03;1.15;;;;;;;32.07;37.35;100022.06;5075852;28;20024;-64
2023/07/22 09:55:47;;;;;;;3.53;1.27;;;;;;;32.28;36.08;100022.19;5070241;28;20059;-64
2023/07/22 09:58:14;;;;;;;1.77;1.20;;;;;;;32.40;37.61;100019.88;5076724;28;20024;-64
2023/07/22 10:00:45;;;;;;;7.70;1.38;;;;;;;32.47;38.08;100015.31;5068287;28;20036;-64
2023/07/22 10:03:12;;;;;;;2.67;1.10;;;;;;;32.54;37.54;100010.75;5072926;28;20605;-63
2023/07/22 10:05:40;;;;;;;2.22;1.10;;;;;;;32.64;37.39;100009.41;5078746;28;20536;-64
2023/07/22 10:08:06;;;;;;;2.53;1.10;;;;;;;32.71;38.40;100002.09;5077350;28;20052;-64
2023/07/22 10:10:34;;;;;;;3.53;1.00;;;;;;;32.60;37.31;100001.72;5067815;28;20036;-63
2023/07/22 10:13:00;;;;;;;2.40;1.00;;;;;;;31.94;37.52;100005.34;5069643;28;20101;-64
2023/07/22 10:15:31;;;;;;;3.75;1.20;;;;;;;30.77;38.99;99999.22;5081845;28;20094;-63
2023/07/22 10:17:57;;;;;;;2.00;0.93;;;;;;;29.94;40.91;100004.38;5074982;28;20543;-63
2023/07/22 10:20:23;;;;;;;3.40;1.10;;;;;;;29.49;42.14;99996.66;5075192;28;20028;-63
2023/07/22 10:22:50;;;;;;;5.30;1.48;;;;;;;29.05;43.04;100006.16;5083775;28;20028;-63
2023/07/22 10:25:20;;;;;;;1.95;1.17;;;;;;;28.94;44.64;100001.88;5070963;28;20032;-63
2023/07/22 10:27:46;;;;;;;2.75;1.30;;;;;;;28.94;45.70;100006.47;5088244;28;20032;-63
2023/07/22 10:30:14;;;;;;;2.42;1.23;;;;;;;28.84;44.44;100009.34;5078647;28;20024;-63
2023/07/22 10:32:47;;;;;;;5.68;1.50;;;;;;;28.70;43.75;100003.66;5083704;28;20118;-63
2023/07/22 10:35:30;;;;;;;2.70;1.58;;;;;;;28.82;45.00;100008.66;5075935;28;20336;-63
2023/07/22 10:37:55;;;;;;;2.63;1.27;;;;;;;28.89;45.27;100008.84;5083520;28;20055;-63
2023/07/22 10:40:29;;;;;;;3.78;1.20;;;;;;;28.91;43.82;100010.41;5089659;28;22056;-63
2023/07/22 10:43:00;;;;;;;3.70;1.15;;;;;;;28.77;43.85;100004.69;5081152;28;20036;-63
2023/07/22 10:45:27;;;;;;;2.67;1.00;;;;;;;28.66;43.25;99997.66;5088317;28;20043;-63
2023/07/22 10:48:12;;;;;;;4.90;1.60;;;;;;;28.20;44.27;99996.19;5086025;28;20024;-62
2023/07/22 10:50:48;;;;;;;2.42;1.33;;;;;;;27.83;44.01;99987.38;5086834;28;20020;-63
2023/07/22 10:53:26;;;;;;;3.30;0.88;;;;;;;27.65;44.71;100000.22;5078817;28;20135;-63
2023/07/22 10:56:12;;;;;;;2.47;1.25;;;;;;;27.66;45.35;99995.63;5086478;28;20071;-63
2023/07/22 10:58:44;;;;;;;2.50;1.00;;;;;;;27.57;46.15;99996.56;5066428;28;20467;-63
2023/07/22 11:01:27;;;;;;;2.92;1.30;;;;;;;27.49;45.84;99991.88;5075363;28;20105;-63
2023/07/22 11:04:13;;;;;;;3.08;0.80;;;;;;;27.87;45.73;99986.03;5081823;28;20027;-62
2023/07/22 11:06:47;;;;;;;5.10;1.50;;;;;;;28.18;43.71;99984.56;5069095;28;20041;-62
2023/07/22 11:09:33;;;;;;;2.10;1.00;;;;;;;28.97;42.60;99976.00;5074462;28;20128;-63
2023/07/22 11:12:01;;;;;;;1.98;1.10;;;;;;;30.07;40.72;99978.13;5076527;28;20287;-63
2023/07/22 11:14:28;;;;;;;1.95;1.00;;;;;;;31.27;37.34;99975.94;5073872;28;20031;-63
2023/07/22 11:16:56;;;;;;;3.25;0.85;;;;;;;31.97;35.84;99966.44;5078447;28;20303;-63
2023/07/22 11:19:23;;;;;;;1.05;0.65;;;;;;;31.78;37.68;99961.44;5071956;28;20164;-63
2023/07/22 11:21:50;;;;;;;1.67;0.70;;;;;;;31.60;34.31;99966.41;5070785;28;20580;-63
2023/07/22 11:24:16;;;;;;;1.83;0.73;;;;;;;31.56;35.45;99965.06;5075581;28;20424;-63
2023/07/22 11:26:41;;;;;;;2.17;0.80;;;;;;;31.66;33.75;99949.16;5072936;28;20035;-63